Redcliff, Canada
Current Conditions -  °F | °C
As of 12:00 AM on Wednesday 22 Oct 2014 (Local Time) from CYXH Reporting Station
Overcast Overcast  
Wind Chill: 46°   Ceiling: 10000
Heat Index: 48°   Visibility: 9mi
Dew Point: 46°   Wind: 5mph
Humidity: 93%   Direction: 200°SSW
Pressure: 29.73"   Gusts: NA
Location:  50.08°N, 110.79°W
Report Text: CYXH 220600Z AUTO 20004KT 9SM OVC100 09/08 A2973 RMK SLP070
Loading
Personal Weather Stations






























Interactive Weather Map New forecast layout! Learn more

10-Day Weather Forecast

Advertisements
Track Severe Weather on mobile